sensor_id;sensor_type;location;lat;lon;timestamp;P1;P2;P0
80643;PMS5003;70010;60.224;24.712;2023-11-21T00:00:15;8;8;
80643;PMS5003;70010;60.224;24.712;2023-11-21T00:02:40;7;7;
80643;PMS5003;70010;60.224;24.712;2023-11-21T00:05:06;7;7;
80643;PMS5003;70010;60.224;24.712;2023-11-21T00:07:31;8;7;
80643;PMS5003;70010;60.224;24.712;2023-11-21T00:09:57;6;6;
80643;PMS5003;70010;60.224;24.712;2023-11-21T00:12:22;9;7;
80643;PMS5003;70010;60.224;24.712;2023-11-21T00:14:47;6;6;
80643;PMS5003;70010;60.224;24.712;2023-11-21T00:17:13;9;7;
80643;PMS5003;70010;60.224;24.712;2023-11-21T00:19:38;6;6;
80643;PMS5003;70010;60.224;24.712;2023-11-21T00:22:04;8;8;
80643;PMS5003;70010;60.224;24.712;2023-11-21T00:24:29;6;6;
80643;PMS5003;70010;60.224;24.712;2023-11-21T00:26:54;8;7;
80643;PMS5003;70010;60.224;24.712;2023-11-21T00:29:20;7;6;
80643;PMS5003;70010;60.224;24.712;2023-11-21T00:31:45;12;7;
80643;PMS5003;70010;60.224;24.712;2023-11-21T00:34:11;6;6;
80643;PMS5003;70010;60.224;24.712;2023-11-21T00:36:36;10;6;
80643;PMS5003;70010;60.224;24.712;2023-11-21T00:39:01;10;7;
80643;PMS5003;70010;60.224;24.712;2023-11-21T00:41:27;9;7;
80643;PMS5003;70010;60.224;24.712;2023-11-21T00:43:52;6;6;
80643;PMS5003;70010;60.224;24.712;2023-11-21T00:46:18;7;7;
80643;PMS5003;70010;60.224;24.712;2023-11-21T00:48:43;18;6;
80643;PMS5003;70010;60.224;24.712;2023-11-21T00:51:09;7;6;
80643;PMS5003;70010;60.224;24.712;2023-11-21T00:53:34;7;6;
80643;PMS5003;70010;60.224;24.712;2023-11-21T00:55:59;9;7;
80643;PMS5003;70010;60.224;24.712;2023-11-21T00:58:25;8;6;
80643;PMS5003;70010;60.224;24.712;2023-11-21T01:00:50;9;9;
80643;PMS5003;70010;60.224;24.712;2023-11-21T01:03:16;12;11;
80643;PMS5003;70010;60.224;24.712;2023-11-21T01:05:41;11;8;
80643;PMS5003;70010;60.224;24.712;2023-11-21T01:08:07;11;10;
80643;PMS5003;70010;60.224;24.712;2023-11-21T01:10:32;9;8;
80643;PMS5003;70010;60.224;24.712;2023-11-21T01:12:58;13;9;
80643;PMS5003;70010;60.224;24.712;2023-11-21T01:15:23;10;7;
80643;PMS5003;70010;60.224;24.712;2023-11-21T01:17:48;7;6;
80643;PMS5003;70010;60.224;24.712;2023-11-21T01:20:14;9;7;
80643;PMS5003;70010;60.224;24.712;2023-11-21T01:22:39;12;7;
80643;PMS5003;70010;60.224;24.712;2023-11-21T01:25:05;7;6;
80643;PMS5003;70010;60.224;24.712;2023-11-21T01:27:30;9;8;
80643;PMS5003;70010;60.224;24.712;2023-11-21T01:29:55;8;8;
80643;PMS5003;70010;60.224;24.712;2023-11-21T01:32:20;7;6;
80643;PMS5003;70010;60.224;24.712;2023-11-21T01:34:47;4;4;
80643;PMS5003;70010;60.224;24.712;2023-11-21T01:37:11;9;9;
80643;PMS5003;70010;60.224;24.712;2023-11-21T01:39:36;7;7;
80643;PMS5003;70010;60.224;24.712;2023-11-21T01:42:02;11;7;
80643;PMS5003;70010;60.224;24.712;2023-11-21T01:44:27;8;8;
80643;PMS5003;70010;60.224;24.712;2023-11-21T01:46:53;8;7;
80643;PMS5003;70010;60.224;24.712;2023-11-21T01:49:18;8;6;
80643;PMS5003;70010;60.224;24.712;2023-11-21T01:51:44;8;7;
80643;PMS5003;70010;60.224;24.712;2023-11-21T01:54:09;12;11;
80643;PMS5003;70010;60.224;24.712;2023-11-21T01:56:34;8;8;
80643;PMS5003;70010;60.224;24.712;2023-11-21T01:59:00;11;7;
80643;PMS5003;70010;60.224;24.712;2023-11-21T02:01:25;8;8;
80643;PMS5003;70010;60.224;24.712;2023-11-21T02:03:51;17;17;
80643;PMS5003;70010;60.224;24.712;2023-11-21T02:06:16;16;16;
80643;PMS5003;70010;60.224;24.712;2023-11-21T02:08:42;15;12;
80643;PMS5003;70010;60.224;24.712;2023-11-21T02:11:07;11;11;
80643;PMS5003;70010;60.224;24.712;2023-11-21T02:13:32;8;8;
80643;PMS5003;70010;60.224;24.712;2023-11-21T02:15:57;13;13;
80643;PMS5003;70010;60.224;24.712;2023-11-21T02:18:23;10;8;
80643;PMS5003;70010;60.224;24.712;2023-11-21T02:20:48;12;12;
80643;PMS5003;70010;60.224;24.712;2023-11-21T02:23:13;16;10;
80643;PMS5003;70010;60.224;24.712;2023-11-21T02:25:39;15;13;
80643;PMS5003;70010;60.224;24.712;2023-11-21T02:28:04;13;11;
80643;PMS5003;70010;60.224;24.712;2023-11-21T02:30:30;19;16;
80643;PMS5003;70010;60.224;24.712;2023-11-21T02:32:55;6;6;
80643;PMS5003;70010;60.224;24.712;2023-11-21T02:35:21;6;6;
80643;PMS5003;70010;60.224;24.712;2023-11-21T02:37:46;6;6;
80643;PMS5003;70010;60.224;24.712;2023-11-21T02:40:12;4;4;
80643;PMS5003;70010;60.224;24.712;2023-11-21T02:42:38;8;8;
80643;PMS5003;70010;60.224;24.712;2023-11-21T02:45:03;14;14;
80643;PMS5003;70010;60.224;24.712;2023-11-21T02:47:28;13;10;
80643;PMS5003;70010;60.224;24.712;2023-11-21T02:49:54;15;15;
80643;PMS5003;70010;60.224;24.712;2023-11-21T02:52:19;8;8;
80643;PMS5003;70010;60.224;24.712;2023-11-21T02:54:45;10;10;
80643;PMS5003;70010;60.224;24.712;2023-11-21T02:57:10;8;8;
80643;PMS5003;70010;60.224;24.712;2023-11-21T02:59:36;13;12;
80643;PMS5003;70010;60.224;24.712;2023-11-21T03:02:01;7;7;
80643;PMS5003;70010;60.224;24.712;2023-11-21T03:04:26;7;7;
80643;PMS5003;70010;60.224;24.712;2023-11-21T03:06:52;11;8;
80643;PMS5003;70010;60.224;24.712;2023-11-21T03:09:17;5;5;
80643;PMS5003;70010;60.224;24.712;2023-11-21T03:11:43;9;5;
80643;PMS5003;70010;60.224;24.712;2023-11-21T03:14:08;7;7;
80643;PMS5003;70010;60.224;24.712;2023-11-21T03:16:33;9;8;
80643;PMS5003;70010;60.224;24.712;2023-11-21T03:18:59;10;8;
80643;PMS5003;70010;60.224;24.712;2023-11-21T03:21:25;10;8;
80643;PMS5003;70010;60.224;24.712;2023-11-21T03:23:50;9;8;
80643;PMS5003;70010;60.224;24.712;2023-11-21T03:26:15;7;7;
80643;PMS5003;70010;60.224;24.712;2023-11-21T03:28:40;10;8;
80643;PMS5003;70010;60.224;24.712;2023-11-21T03:31:06;11;9;
80643;PMS5003;70010;60.224;24.712;2023-11-21T03:33:31;20;8;
80643;PMS5003;70010;60.224;24.712;2023-11-21T03:35:57;9;8;
80643;PMS5003;70010;60.224;24.712;2023-11-21T03:38:22;9;7;
80643;PMS5003;70010;60.224;24.712;2023-11-21T03:40:47;10;8;
80643;PMS5003;70010;60.224;24.712;2023-11-21T03:43:13;8;8;
80643;PMS5003;70010;60.224;24.712;2023-11-21T03:45:39;7;7;
80643;PMS5003;70010;60.224;24.712;2023-11-21T03:48:04;8;8;
80643;PMS5003;70010;60.224;24.712;2023-11-21T03:50:30;12;10;
80643;PMS5003;70010;60.224;24.712;2023-11-21T03:52:55;9;9;
80643;PMS5003;70010;60.224;24.712;2023-11-21T03:55:20;17;10;
80643;PMS5003;70010;60.224;24.712;2023-11-21T03:57:45;10;10;
80643;PMS5003;70010;60.224;24.712;2023-11-21T04:00:11;10;10;
80643;PMS5003;70010;60.224;24.712;2023-11-21T04:02:36;13;10;
80643;PMS5003;70010;60.224;24.712;2023-11-21T04:05:02;11;10;
80643;PMS5003;70010;60.224;24.712;2023-11-21T04:07:27;13;10;
80643;PMS5003;70010;60.224;24.712;2023-11-21T04:09:53;20;11;
80643;PMS5003;70010;60.224;24.712;2023-11-21T04:12:18;8;8;
80643;PMS5003;70010;60.224;24.712;2023-11-21T04:14:43;10;10;
80643;PMS5003;70010;60.224;24.712;2023-11-21T04:17:09;10;10;
80643;PMS5003;70010;60.224;24.712;2023-11-21T04:19:34;14;10;
80643;PMS5003;70010;60.224;24.712;2023-11-21T04:21:59;12;12;
80643;PMS5003;70010;60.224;24.712;2023-11-21T04:24:24;14;12;
80643;PMS5003;70010;60.224;24.712;2023-11-21T04:26:49;19;11;
80643;PMS5003;70010;60.224;24.712;2023-11-21T04:29:15;13;10;
80643;PMS5003;70010;60.224;24.712;2023-11-21T04:31:40;13;11;
80643;PMS5003;70010;60.224;24.712;2023-11-21T04:34:05;15;13;
80643;PMS5003;70010;60.224;24.712;2023-11-21T04:36:31;13;10;
80643;PMS5003;70010;60.224;24.712;2023-11-21T04:38:56;17;13;
80643;PMS5003;70010;60.224;24.712;2023-11-21T04:41:22;15;15;
80643;PMS5003;70010;60.224;24.712;2023-11-21T04:43:47;23;16;
80643;PMS5003;70010;60.224;24.712;2023-11-21T04:46:13;16;14;
80643;PMS5003;70010;60.224;24.712;2023-11-21T04:48:38;32;18;
80643;PMS5003;70010;60.224;24.712;2023-11-21T04:51:03;21;16;
80643;PMS5003;70010;60.224;24.712;2023-11-21T04:53:28;20;17;
80643;PMS5003;70010;60.224;24.712;2023-11-21T04:55:53;20;19;
80643;PMS5003;70010;60.224;24.712;2023-11-21T04:58:19;22;18;
80643;PMS5003;70010;60.224;24.712;2023-11-21T05:00:44;32;21;
80643;PMS5003;70010;60.224;24.712;2023-11-21T05:03:10;27;20;
80643;PMS5003;70010;60.224;24.712;2023-11-21T05:05:35;35;22;
80643;PMS5003;70010;60.224;24.712;2023-11-21T05:08:00;21;17;
80643;PMS5003;70010;60.224;24.712;2023-11-21T05:10:26;30;21;
80643;PMS5003;70010;60.224;24.712;2023-11-21T05:12:51;22;16;
80643;PMS5003;70010;60.224;24.712;2023-11-21T05:15:16;41;22;
80643;PMS5003;70010;60.224;24.712;2023-11-21T05:17:42;22;22;
80643;PMS5003;70010;60.224;24.712;2023-11-21T05:20:08;20;18;
80643;PMS5003;70010;60.224;24.712;2023-11-21T05:22:33;24;21;
80643;PMS5003;70010;60.224;24.712;2023-11-21T05:24:58;23;17;
80643;PMS5003;70010;60.224;24.712;2023-11-21T05:27:24;34;21;
80643;PMS5003;70010;60.224;24.712;2023-11-21T05:29:49;22;20;
80643;PMS5003;70010;60.224;24.712;2023-11-21T05:32:14;25;21;
80643;PMS5003;70010;60.224;24.712;2023-11-21T05:34:40;43;22;
80643;PMS5003;70010;60.224;24.712;2023-11-21T05:37:05;23;21;
80643;PMS5003;70010;60.224;24.712;2023-11-21T05:39:30;23;18;
80643;PMS5003;70010;60.224;24.712;2023-11-21T05:41:56;36;22;
80643;PMS5003;70010;60.224;24.712;2023-11-21T05:44:22;32;19;
80643;PMS5003;70010;60.224;24.712;2023-11-21T05:46:47;34;24;
80643;PMS5003;70010;60.224;24.712;2023-11-21T05:49:12;32;20;
80643;PMS5003;70010;60.224;24.712;2023-11-21T05:51:38;39;23;
80643;PMS5003;70010;60.224;24.712;2023-11-21T05:54:04;25;23;
80643;PMS5003;70010;60.224;24.712;2023-11-21T05:56:30;24;22;
80643;PMS5003;70010;60.224;24.712;2023-11-21T05:58:55;23;20;
80643;PMS5003;70010;60.224;24.712;2023-11-21T06:01:20;28;18;
80643;PMS5003;70010;60.224;24.712;2023-11-21T06:03:46;36;24;
80643;PMS5003;70010;60.224;24.712;2023-11-21T06:06:11;35;21;
80643;PMS5003;70010;60.224;24.712;2023-11-21T06:08:37;30;22;
80643;PMS5003;70010;60.224;24.712;2023-11-21T06:11:02;26;22;
80643;PMS5003;70010;60.224;24.712;2023-11-21T06:13:27;29;20;
80643;PMS5003;70010;60.224;24.712;2023-11-21T06:15:53;17;17;
80643;PMS5003;70010;60.224;24.712;2023-11-21T06:18:18;35;23;
80643;PMS5003;70010;60.224;24.712;2023-11-21T06:20:44;21;21;
80643;PMS5003;70010;60.224;24.712;2023-11-21T06:23:10;22;21;
80643;PMS5003;70010;60.224;24.712;2023-11-21T06:25:35;26;21;
80643;PMS5003;70010;60.224;24.712;2023-11-21T06:28:00;29;19;
80643;PMS5003;70010;60.224;24.712;2023-11-21T06:30:25;23;17;
80643;PMS5003;70010;60.224;24.712;2023-11-21T06:32:50;34;19;
80643;PMS5003;70010;60.224;24.712;2023-11-21T06:35:16;23;18;
80643;PMS5003;70010;60.224;24.712;2023-11-21T06:37:42;21;17;
80643;PMS5003;70010;60.224;24.712;2023-11-21T06:40:07;27;23;
80643;PMS5003;70010;60.224;24.712;2023-11-21T06:42:33;32;21;
80643;PMS5003;70010;60.224;24.712;2023-11-21T06:44:58;29;19;
80643;PMS5003;70010;60.224;24.712;2023-11-21T06:47:24;26;19;
80643;PMS5003;70010;60.224;24.712;2023-11-21T06:49:49;29;18;
80643;PMS5003;70010;60.224;24.712;2023-11-21T06:52:14;27;15;
80643;PMS5003;70010;60.224;24.712;2023-11-21T06:54:40;24;20;
80643;PMS5003;70010;60.224;24.712;2023-11-21T06:57:05;24;21;
80643;PMS5003;70010;60.224;24.712;2023-11-21T06:59:31;36;18;
80643;PMS5003;70010;60.224;24.712;2023-11-21T07:01:56;31;20;
80643;PMS5003;70010;60.224;24.712;2023-11-21T07:04:21;28;16;
80643;PMS5003;70010;60.224;24.712;2023-11-21T07:06:46;28;19;
80643;PMS5003;70010;60.224;24.712;2023-11-21T07:09:12;32;18;
80643;PMS5003;70010;60.224;24.712;2023-11-21T07:11:37;24;16;
80643;PMS5003;70010;60.224;24.712;2023-11-21T07:14:03;32;21;
80643;PMS5003;70010;60.224;24.712;2023-11-21T07:16:28;29;18;
80643;PMS5003;70010;60.224;24.712;2023-11-21T07:18:53;20;14;
80643;PMS5003;70010;60.224;24.712;2023-11-21T07:21:18;16;14;
80643;PMS5003;70010;60.224;24.712;2023-11-21T07:23:43;18;17;
80643;PMS5003;70010;60.224;24.712;2023-11-21T07:26:08;30;14;
80643;PMS5003;70010;60.224;24.712;2023-11-21T07:28:34;25;18;
80643;PMS5003;70010;60.224;24.712;2023-11-21T07:30:59;18;15;
80643;PMS5003;70010;60.224;24.712;2023-11-21T07:33:25;16;15;
80643;PMS5003;70010;60.224;24.712;2023-11-21T07:35:51;16;15;
80643;PMS5003;70010;60.224;24.712;2023-11-21T07:38:16;15;13;
80643;PMS5003;70010;60.224;24.712;2023-11-21T07:40:41;17;14;
80643;PMS5003;70010;60.224;24.712;2023-11-21T07:43:07;20;17;
80643;PMS5003;70010;60.224;24.712;2023-11-21T07:45:32;28;16;
80643;PMS5003;70010;60.224;24.712;2023-11-21T07:47:57;17;15;
80643;PMS5003;70010;60.224;24.712;2023-11-21T07:50:22;16;16;
80643;PMS5003;70010;60.224;24.712;2023-11-21T07:52:48;18;14;
80643;PMS5003;70010;60.224;24.712;2023-11-21T07:55:13;22;13;
80643;PMS5003;70010;60.224;24.712;2023-11-21T07:57:38;16;16;
80643;PMS5003;70010;60.224;24.712;2023-11-21T08:00:04;18;15;
80643;PMS5003;70010;60.224;24.712;2023-11-21T08:02:29;15;12;
80643;PMS5003;70010;60.224;24.712;2023-11-21T08:04:54;21;15;
80643;PMS5003;70010;60.224;24.712;2023-11-21T08:07:19;14;12;
80643;PMS5003;70010;60.224;24.712;2023-11-21T08:09:44;12;11;
80643;PMS5003;70010;60.224;24.712;2023-11-21T08:12:10;15;13;
80643;PMS5003;70010;60.224;24.712;2023-11-21T08:14:35;24;13;
80643;PMS5003;70010;60.224;24.712;2023-11-21T08:17:00;14;12;
80643;PMS5003;70010;60.224;24.712;2023-11-21T08:19:26;15;12;
80643;PMS5003;70010;60.224;24.712;2023-11-21T08:21:51;16;12;
80643;PMS5003;70010;60.224;24.712;2023-11-21T08:24:17;14;14;
80643;PMS5003;70010;60.224;24.712;2023-11-21T08:26:42;17;15;
80643;PMS5003;70010;60.224;24.712;2023-11-21T08:29:08;25;14;
80643;PMS5003;70010;60.224;24.712;2023-11-21T08:31:33;11;11;
80643;PMS5003;70010;60.224;24.712;2023-11-21T08:33:59;13;12;
80643;PMS5003;70010;60.224;24.712;2023-11-21T08:36:24;21;16;
80643;PMS5003;70010;60.224;24.712;2023-11-21T08:38:49;18;12;
80643;PMS5003;70010;60.224;24.712;2023-11-21T08:41:15;12;12;
80643;PMS5003;70010;60.224;24.712;2023-11-21T08:43:40;22;13;
80643;PMS5003;70010;60.224;24.712;2023-11-21T08:46:06;15;13;
80643;PMS5003;70010;60.224;24.712;2023-11-21T08:48:31;16;12;
80643;PMS5003;70010;60.224;24.712;2023-11-21T08:50:57;16;12;
80643;PMS5003;70010;60.224;24.712;2023-11-21T08:53:22;14;13;
80643;PMS5003;70010;60.224;24.712;2023-11-21T08:55:47;16;14;
80643;PMS5003;70010;60.224;24.712;2023-11-21T08:58:13;15;15;
80643;PMS5003;70010;60.224;24.712;2023-11-21T09:00:39;16;13;
80643;PMS5003;70010;60.224;24.712;2023-11-21T09:03:03;14;12;
80643;PMS5003;70010;60.224;24.712;2023-11-21T09:05:28;13;13;
80643;PMS5003;70010;60.224;24.712;2023-11-21T09:07:54;13;10;
80643;PMS5003;70010;60.224;24.712;2023-11-21T09:10:19;15;12;
80643;PMS5003;70010;60.224;24.712;2023-11-21T09:12:44;15;13;
80643;PMS5003;70010;60.224;24.712;2023-11-21T09:15:10;12;11;
80643;PMS5003;70010;60.224;24.712;2023-11-21T09:17:35;14;12;
80643;PMS5003;70010;60.224;24.712;2023-11-21T09:20:00;10;10;
80643;PMS5003;70010;60.224;24.712;2023-11-21T09:22:26;10;8;
80643;PMS5003;70010;60.224;24.712;2023-11-21T09:24:51;18;14;
80643;PMS5003;70010;60.224;24.712;2023-11-21T09:27:17;21;16;
80643;PMS5003;70010;60.224;24.712;2023-11-21T09:29:42;16;13;
80643;PMS5003;70010;60.224;24.712;2023-11-21T09:32:07;12;11;
80643;PMS5003;70010;60.224;24.712;2023-11-21T09:34:33;15;12;
80643;PMS5003;70010;60.224;24.712;2023-11-21T09:36:58;11;8;
80643;PMS5003;70010;60.224;24.712;2023-11-21T09:39:24;11;10;
80643;PMS5003;70010;60.224;24.712;2023-11-21T09:41:49;11;11;
80643;PMS5003;70010;60.224;24.712;2023-11-21T09:44:16;19;13;
80643;PMS5003;70010;60.224;24.712;2023-11-21T09:46:40;17;13;
80643;PMS5003;70010;60.224;24.712;2023-11-21T09:49:05;14;12;
80643;PMS5003;70010;60.224;24.712;2023-11-21T09:51:30;13;11;
80643;PMS5003;70010;60.224;24.712;2023-11-21T09:53:56;9;9;
80643;PMS5003;70010;60.224;24.712;2023-11-21T09:56:21;15;11;
80643;PMS5003;70010;60.224;24.712;2023-11-21T09:58:46;13;9;
80643;PMS5003;70010;60.224;24.712;2023-11-21T10:01:11;15;15;
80643;PMS5003;70010;60.224;24.712;2023-11-21T10:03:36;16;11;
80643;PMS5003;70010;60.224;24.712;2023-11-21T10:06:02;13;13;
80643;PMS5003;70010;60.224;24.712;2023-11-21T10:08:27;15;13;
80643;PMS5003;70010;60.224;24.712;2023-11-21T10:10:53;13;12;
80643;PMS5003;70010;60.224;24.712;2023-11-21T10:13:18;12;12;
80643;PMS5003;70010;60.224;24.712;2023-11-21T10:15:43;12;9;
80643;PMS5003;70010;60.224;24.712;2023-11-21T10:18:09;14;12;
80643;PMS5003;70010;60.224;24.712;2023-11-21T10:20:34;16;15;
80643;PMS5003;70010;60.224;24.712;2023-11-21T10:22:59;8;8;
80643;PMS5003;70010;60.224;24.712;2023-11-21T10:25:24;12;11;
80643;PMS5003;70010;60.224;24.712;2023-11-21T10:27:55;16;13;
80643;PMS5003;70010;60.224;24.712;2023-11-21T10:30:16;16;12;
80643;PMS5003;70010;60.224;24.712;2023-11-21T10:32:42;15;13;
80643;PMS5003;70010;60.224;24.712;2023-11-21T10:35:07;22;13;
80643;PMS5003;70010;60.224;24.712;2023-11-21T10:37:32;15;12;
80643;PMS5003;70010;60.224;24.712;2023-11-21T10:39:57;13;12;
80643;PMS5003;70010;60.224;24.712;2023-11-21T10:42:23;14;11;
80643;PMS5003;70010;60.224;24.712;2023-11-21T10:44:48;19;12;
80643;PMS5003;70010;60.224;24.712;2023-11-21T10:47:13;16;10;
80643;PMS5003;70010;60.224;24.712;2023-11-21T10:49:39;15;13;
80643;PMS5003;70010;60.224;24.712;2023-11-21T10:52:04;16;11;
80643;PMS5003;70010;60.224;24.712;2023-11-21T10:54:29;18;12;
80643;PMS5003;70010;60.224;24.712;2023-11-21T10:56:56;12;11;
80643;PMS5003;70010;60.224;24.712;2023-11-21T10:59:20;10;10;
80643;PMS5003;70010;60.224;24.712;2023-11-21T11:01:45;10;10;
80643;PMS5003;70010;60.224;24.712;2023-11-21T11:04:11;10;10;
80643;PMS5003;70010;60.224;24.712;2023-11-21T11:06:36;21;13;
80643;PMS5003;70010;60.224;24.712;2023-11-21T11:09:01;12;12;
80643;PMS5003;70010;60.224;24.712;2023-11-21T11:11:27;13;12;
80643;PMS5003;70010;60.224;24.712;2023-11-21T11:13:52;12;11;
80643;PMS5003;70010;60.224;24.712;2023-11-21T11:16:17;13;12;
80643;PMS5003;70010;60.224;24.712;2023-11-21T11:18:43;12;11;
80643;PMS5003;70010;60.224;24.712;2023-11-21T11:21:11;10;9;
80643;PMS5003;70010;60.224;24.712;2023-11-21T11:23:37;10;10;
80643;PMS5003;70010;60.224;24.712;2023-11-21T11:26:04;14;11;
80643;PMS5003;70010;60.224;24.712;2023-11-21T11:28:27;14;11;
80643;PMS5003;70010;60.224;24.712;2023-11-21T11:30:53;14;10;
80643;PMS5003;70010;60.224;24.712;2023-11-21T11:33:18;14;11;
80643;PMS5003;70010;60.224;24.712;2023-11-21T11:35:42;11;10;
80643;PMS5003;70010;60.224;24.712;2023-11-21T11:38:05;12;10;
80643;PMS5003;70010;60.224;24.712;2023-11-21T11:42:56;18;9;
80643;PMS5003;70010;60.224;24.712;2023-11-21T11:45:21;14;9;
80643;PMS5003;70010;60.224;24.712;2023-11-21T11:47:47;11;9;
80643;PMS5003;70010;60.224;24.712;2023-11-21T11:50:12;10;10;
80643;PMS5003;70010;60.224;24.712;2023-11-21T11:52:38;17;12;
80643;PMS5003;70010;60.224;24.712;2023-11-21T11:55:02;9;9;
80643;PMS5003;70010;60.224;24.712;2023-11-21T11:57:29;8;8;
80643;PMS5003;70010;60.224;24.712;2023-11-21T12:02:21;13;11;
80643;PMS5003;70010;60.224;24.712;2023-11-21T12:04:43;9;8;
80643;PMS5003;70010;60.224;24.712;2023-11-21T12:07:09;9;8;
80643;PMS5003;70010;60.224;24.712;2023-11-21T12:09:34;13;10;
80643;PMS5003;70010;60.224;24.712;2023-11-21T12:11:59;12;9;
80643;PMS5003;70010;60.224;24.712;2023-11-21T12:14:24;11;10;
80643;PMS5003;70010;60.224;24.712;2023-11-21T12:16:50;9;9;
80643;PMS5003;70010;60.224;24.712;2023-11-21T12:19:15;9;9;
80643;PMS5003;70010;60.224;24.712;2023-11-21T12:21:41;10;10;
80643;PMS5003;70010;60.224;24.712;2023-11-21T12:24:06;6;6;
80643;PMS5003;70010;60.224;24.712;2023-11-21T12:26:31;10;8;
80643;PMS5003;70010;60.224;24.712;2023-11-21T12:28:57;11;10;
80643;PMS5003;70010;60.224;24.712;2023-11-21T12:31:22;10;8;
80643;PMS5003;70010;60.224;24.712;2023-11-21T12:33:48;9;9;
80643;PMS5003;70010;60.224;24.712;2023-11-21T12:36:13;12;11;
80643;PMS5003;70010;60.224;24.712;2023-11-21T12:38:38;12;11;
80643;PMS5003;70010;60.224;24.712;2023-11-21T12:41:04;12;12;
80643;PMS5003;70010;60.224;24.712;2023-11-21T12:43:29;13;13;
80643;PMS5003;70010;60.224;24.712;2023-11-21T12:48:20;11;10;
80643;PMS5003;70010;60.224;24.712;2023-11-21T12:50:45;13;12;
80643;PMS5003;70010;60.224;24.712;2023-11-21T12:53:11;8;6;
80643;PMS5003;70010;60.224;24.712;2023-11-21T12:55:36;7;7;
80643;PMS5003;70010;60.224;24.712;2023-11-21T12:58:02;7;7;
80643;PMS5003;70010;60.224;24.712;2023-11-21T13:00:28;12;7;
80643;PMS5003;70010;60.224;24.712;2023-11-21T13:02:52;11;10;
80643;PMS5003;70010;60.224;24.712;2023-11-21T13:07:42;10;7;
80643;PMS5003;70010;60.224;24.712;2023-11-21T13:10:08;7;7;
80643;PMS5003;70010;60.224;24.712;2023-11-21T13:12:33;15;13;
80643;PMS5003;70010;60.224;24.712;2023-11-21T13:15:03;11;11;
80643;PMS5003;70010;60.224;24.712;2023-11-21T13:17:24;11;10;
80643;PMS5003;70010;60.224;24.712;2023-11-21T13:19:49;11;10;
80643;PMS5003;70010;60.224;24.712;2023-11-21T13:22:15;12;8;
80643;PMS5003;70010;60.224;24.712;2023-11-21T13:24:40;11;10;
80643;PMS5003;70010;60.224;24.712;2023-11-21T13:27:05;9;9;
80643;PMS5003;70010;60.224;24.712;2023-11-21T13:29:31;11;9;
80643;PMS5003;70010;60.224;24.712;2023-11-21T13:31:56;11;10;
80643;PMS5003;70010;60.224;24.712;2023-11-21T13:34:22;11;10;
80643;PMS5003;70010;60.224;24.712;2023-11-21T13:36:47;10;9;
80643;PMS5003;70010;60.224;24.712;2023-11-21T13:39:12;10;10;
80643;PMS5003;70010;60.224;24.712;2023-11-21T13:41:38;9;9;
80643;PMS5003;70010;60.224;24.712;2023-11-21T13:44:03;14;9;
80643;PMS5003;70010;60.224;24.712;2023-11-21T13:46:28;11;11;
80643;PMS5003;70010;60.224;24.712;2023-11-21T13:48:53;8;7;
80643;PMS5003;70010;60.224;24.712;2023-11-21T13:51:19;10;7;
80643;PMS5003;70010;60.224;24.712;2023-11-21T13:53:44;14;8;
80643;PMS5003;70010;60.224;24.712;2023-11-21T13:56:09;9;9;
80643;PMS5003;70010;60.224;24.712;2023-11-21T13:58:35;7;7;
80643;PMS5003;70010;60.224;24.712;2023-11-21T14:01:00;11;5;
80643;PMS5003;70010;60.224;24.712;2023-11-21T14:03:25;10;7;
80643;PMS5003;70010;60.224;24.712;2023-11-21T14:05:51;7;7;
80643;PMS5003;70010;60.224;24.712;2023-11-21T14:08:16;14;8;
80643;PMS5003;70010;60.224;24.712;2023-11-21T14:10:41;11;10;
80643;PMS5003;70010;60.224;24.712;2023-11-21T14:13:07;9;9;
80643;PMS5003;70010;60.224;24.712;2023-11-21T14:15:32;10;9;
80643;PMS5003;70010;60.224;24.712;2023-11-21T14:17:57;9;8;
80643;PMS5003;70010;60.224;24.712;2023-11-21T14:20:22;15;12;
80643;PMS5003;70010;60.224;24.712;2023-11-21T14:22:48;9;9;
80643;PMS5003;70010;60.224;24.712;2023-11-21T14:25:13;9;9;
80643;PMS5003;70010;60.224;24.712;2023-11-21T14:27:38;8;7;
80643;PMS5003;70010;60.224;24.712;2023-11-21T14:30:04;15;12;
80643;PMS5003;70010;60.224;24.712;2023-11-21T14:32:29;16;14;
80643;PMS5003;70010;60.224;24.712;2023-11-21T14:34:54;10;9;
80643;PMS5003;70010;60.224;24.712;2023-11-21T14:37:20;12;10;
80643;PMS5003;70010;60.224;24.712;2023-11-21T14:39:45;22;14;
80643;PMS5003;70010;60.224;24.712;2023-11-21T14:42:11;11;9;
80643;PMS5003;70010;60.224;24.712;2023-11-21T14:44:36;10;10;
80643;PMS5003;70010;60.224;24.712;2023-11-21T14:47:02;16;13;
80643;PMS5003;70010;60.224;24.712;2023-11-21T14:49:27;12;10;
80643;PMS5003;70010;60.224;24.712;2023-11-21T14:51:53;17;10;
80643;PMS5003;70010;60.224;24.712;2023-11-21T14:54:17;10;10;
80643;PMS5003;70010;60.224;24.712;2023-11-21T14:56:43;13;10;
80643;PMS5003;70010;60.224;24.712;2023-11-21T14:59:08;8;8;
80643;PMS5003;70010;60.224;24.712;2023-11-21T15:01:34;11;10;
80643;PMS5003;70010;60.224;24.712;2023-11-21T15:03:59;22;11;
80643;PMS5003;70010;60.224;24.712;2023-11-21T15:06:24;18;13;
80643;PMS5003;70010;60.224;24.712;2023-11-21T15:08:50;11;9;
80643;PMS5003;70010;60.224;24.712;2023-11-21T15:11:15;19;12;
80643;PMS5003;70010;60.224;24.712;2023-11-21T15:13:40;13;11;
80643;PMS5003;70010;60.224;24.712;2023-11-21T15:16:06;13;9;
80643;PMS5003;70010;60.224;24.712;2023-11-21T15:18:31;12;12;
80643;PMS5003;70010;60.224;24.712;2023-11-21T15:20:57;12;12;
80643;PMS5003;70010;60.224;24.712;2023-11-21T15:23:22;14;12;
80643;PMS5003;70010;60.224;24.712;2023-11-21T15:25:48;23;15;
80643;PMS5003;70010;60.224;24.712;2023-11-21T15:28:13;24;15;
80643;PMS5003;70010;60.224;24.712;2023-11-21T15:30:39;17;12;
80643;PMS5003;70010;60.224;24.712;2023-11-21T15:33:04;25;15;
80643;PMS5003;70010;60.224;24.712;2023-11-21T15:35:29;14;12;
80643;PMS5003;70010;60.224;24.712;2023-11-21T15:37:55;21;12;
80643;PMS5003;70010;60.224;24.712;2023-11-21T15:40:20;15;13;
80643;PMS5003;70010;60.224;24.712;2023-11-21T15:42:46;17;16;
80643;PMS5003;70010;60.224;24.712;2023-11-21T15:45:11;22;13;
80643;PMS5003;70010;60.224;24.712;2023-11-21T15:47:36;28;17;
80643;PMS5003;70010;60.224;24.712;2023-11-21T15:50:02;17;13;
80643;PMS5003;70010;60.224;24.712;2023-11-21T15:52:27;15;14;
80643;PMS5003;70010;60.224;24.712;2023-11-21T15:54:52;9;9;
80643;PMS5003;70010;60.224;24.712;2023-11-21T15:57:17;14;11;
80643;PMS5003;70010;60.224;24.712;2023-11-21T15:59:43;12;11;
80643;PMS5003;70010;60.224;24.712;2023-11-21T16:02:08;14;13;
80643;PMS5003;70010;60.224;24.712;2023-11-21T16:04:33;22;12;
80643;PMS5003;70010;60.224;24.712;2023-11-21T16:06:59;20;15;